Terminal Aerodrome Forecast
Issued by NWS Sterling, VA

Current Version | Previous Version | Graphics & Text | Print | Product List | Glossary On
Versions: 1 2 3 4 5 6 7 8 9 10 11 12 13
184
FTUS41 KLWX 172328
TAFMRB
TAF
KMRB 172328Z 1800/1824 VRB03KT P6SM FEW250
     FM181700 23008KT P6SM FEW250
     FM182100 24007KT P6SM BKN110=

USA.gov is the U.S. government's official web portal to all federal, state and local government web resources and services.